Date,TemperatureHighF,TemperatureAvgF,TemperatureLowF,DewpointHighF,DewpointAvgF,DewpointLowF,HumidityHigh,HumidityAvg,HumidityLow,PressureMaxIn,PressureMinIn,WindSpeedMaxMPH,WindSpeedAvgMPH,GustSpeedMaxMPH,PrecipitationSumIn
2013-1-1,29,23,17,-100,-100,-100,0,0,100,30.07,29.89,5,3,16,0.01
2013-1-2,32,25,21,-100,-100,-100,0,0,100,30.20,29.99,4,2,15,0.00
2013-1-3,30,26,20,-100,-100,-100,0,0,100,30.17,29.94,3,2,18,0.00
2013-1-4,34,30,28,-100,-100,-100,0,0,100,30.03,29.88,5,3,28,0.00
2013-1-5,37,33,30,-100,-100,-100,0,0,100,30.27,30.00,4,1,23,0.04
2013-1-6,37,34,27,-100,-100,-100,0,0,100,30.17,29.86,7,2,18,0.17
2013-1-7,34,29,22,-100,-100,-100,0,0,100,30.41,30.12,7,3,23,0.00
2013-1-8,37,34,30,-100,-100,-100,0,0,100,30.30,30.12,4,1,18,0.02
2013-1-9,44,38,32,-100,-100,-100,0,0,100,30.37,29.94,7,3,32,0.04
2013-1-10,43,38,35,-100,-100,-100,0,0,100,30.60,30.38,5,1,21,0.00
2013-1-11,45,41,37,-100,-100,-100,0,0,100,30.35,29.87,6,3,19,0.13
2013-1-12,54,48,42,-100,-100,-100,0,0,100,29.97,29.89,3,1,11,0.00
2013-1-13,55,50,42,-100,-100,-100,0,0,100,29.92,29.72,5,0,16,1.11
2013-1-14,41,33,27,-100,-100,-100,0,0,100,30.40,29.84,7,3,24,0.04
2013-1-15,34,29,24,-100,-100,-100,0,0,100,30.41,30.15,3,0,11,0.00
2013-1-16,37,33,28,-100,-100,-100,0,0,100,30.14,29.75,4,2,21,0.00
2013-1-17,35,23,15,-100,-100,-100,0,0,100,30.23,29.83,8,4,21,0.00
2013-1-18,33,22,12,-100,-100,-100,0,0,100,30.42,29.96,7,3,25,0.01
2013-1-19,44,40,34,-100,-100,-100,0,0,100,29.95,29.47,7,3,27,0.00
2013-1-20,44,28,18,-100,-100,-100,0,0,100,30.09,29.40,10,5,41,0.02
2013-1-21,24,19,12,-100,-100,-100,0,0,100,30.06,29.85,6,2,22,0.00
2013-1-22,14,10,5,-100,-100,-100,0,0,100,30.20,29.90,6,3,23,0.00
2013-1-23,17,8,-1,-100,-100,-100,0,0,100,30.25,30.10,4,1,14,0.00
2013-1-24,14,10,6,-100,-100,-100,0,0,100,30.55,30.09,7,3,21,0.00
2013-1-25,21,15,7,-100,-100,-100,0,0,100,30.51,30.09,2,1,8,0.00
2013-1-26,29,22,15,-100,-100,-100,0,0,100,30.43,30.10,2,1,10,0.00
2013-1-27,31,24,13,-100,-100,-100,0,0,100,30.57,30.32,4,1,13,0.04
2013-1-28,37,34,30,-100,-100,-100,0,0,100,30.31,29.83,3,1,13,0.30
2013-1-29,43,38,35,-100,-100,-100,0,0,100,30.03,29.60,6,1,15,0.84
2013-1-30,53,49,44,-100,-100,-100,0,0,100,29.58,28.99,4,2,26,0.13
2013-1-31,44,29,22,-100,-100,-100,0,0,100,29.71,29.01,7,5,31,0.03
2013-2-1,25,20,16,-100,-100,-100,0,0,100,30.17,29.71,7,3,20,0.01
2013-2-2,26,20,16,-100,-100,-100,0,0,100,30.15,29.96,4,2,17,0.00
2013-2-3,29,21,14,-100,-100,-100,0,0,100,29.98,29.80,2,1,16,0.01
2013-2-4,26,20,13,-100,-100,-100,0,0,100,29.96,29.85,4,2,17,0.00
2013-2-5,28,22,12,-100,-100,-100,0,0,100,29.95,29.84,2,1,15,0.00
2013-2-6,27,24,20,-100,-100,-100,0,0,100,30.37,29.86,6,2,19,0.00
2013-2-7,31,26,21,-100,-100,-100,0,0,100,30.38,30.09,7,3,20,0.00
2013-2-8,24,20,16,-100,-100,-100,0,0,100,30.20,29.89,7,4,20,0.00
2013-2-9,26,18,10,-100,-100,-100,0,0,100,30.42,30.22,5,2,14,0.28
2013-2-10,34,27,15,-100,-100,-100,0,0,100,30.38,29.86,8,3,20,0.13
2013-2-11,42,36,34,-100,-100,-100,0,0,100,29.87,29.53,6,2,27,0.30
2013-2-12,38,34,32,-100,-100,-100,0,0,100,29.95,29.68,5,2,25,0.01
2013-2-13,38,32,26,-100,-100,-100,0,0,100,29.89,29.74,3,1,10,0.00
2013-3-2,30,24,18,-100,-100,-100,0,0,100,30.00,29.93,6,4,18,0.00
2013-3-3,31,24,20,-100,-100,-100,0,0,100,29.95,29.88,6,4,17,0.01
2013-3-4,35,27,19,-100,-100,-100,0,0,100,30.09,29.95,6,3,20,0.00
2013-3-5,34,28,20,-100,-100,-100,0,0,100,30.11,29.98,6,3,20,0.04
2013-3-6,43,37,30,-100,-100,-100,0,0,100,30.18,29.98,5,2,18,0.01
2013-3-7,40,36,34,-100,-100,-100,0,0,100,30.32,30.18,2,0,13,0.05
2013-3-8,45,38,33,-100,-100,-100,0,0,100,30.42,30.32,4,1,14,0.00
2013-3-9,46,37,28,-100,-100,-100,0,0,100,30.42,30.18,7,2,16,0.01
2013-3-10,54,46,38,-100,-100,-100,0,0,100,30.17,29.93,4,1,12,0.00
2013-3-11,49,46,43,-100,-100,-100,0,0,100,29.93,29.60,4,1,15,0.20
2013-3-12,43,38,34,-100,-100,-100,0,0,100,29.88,29.66,5,2,22,0.03
2013-3-13,36,32,23,-100,-100,-100,0,0,100,30.00,29.82,8,2,24,0.03
2013-3-14,35,26,18,-100,-100,-100,0,0,100,30.10,30.00,7,4,27,0.00
2013-3-15,45,34,25,-100,-100,-100,0,0,100,30.04,29.73,8,3,35,0.00
2013-3-16,30,27,24,-100,-100,-100,0,0,100,29.99,29.88,4,2,15,0.00
2013-3-17,34,26,20,-100,-100,-100,0,0,100,30.35,29.99,5,2,16,0.00
2013-3-18,34,29,21,-100,-100,-100,0,0,100,30.34,29.66,8,3,26,0.00
2013-3-19,35,32,26,-100,-100,-100,0,0,100,29.82,29.58,5,2,21,0.21
2013-3-20,36,29,23,-100,-100,-100,0,0,100,29.84,29.79,5,2,20,0.06
2013-3-21,34,27,19,-100,-100,-100,0,0,100,29.82,29.69,4,2,18,0.04
2013-3-22,40,32,27,-100,-100,-100,0,0,100,29.93,29.74,5,3,20,0.01
2013-3-23,43,35,29,-100,-100,-100,0,0,100,30.04,29.92,6,2,20,0.00
2013-3-24,42,34,26,-100,-100,-100,0,0,100,30.05,29.76,4,1,14,0.00
2013-3-25,44,38,33,-100,-100,-100,0,0,100,29.76,29.65,6,3,22,0.00
2013-3-26,53,43,36,-100,-100,-100,0,0,100,29.96,29.75,5,3,17,0.00
2013-3-27,50,40,34,-100,-100,-100,0,0,100,30.08,29.93,5,2,19,0.01
2013-3-28,49,41,33,-100,-100,-100,0,0,100,30.21,30.07,4,2,13,0.00
2013-3-29,55,45,37,-100,-100,-100,0,0,100,30.21,30.12,4,2,19,0.00
2013-3-30,53,42,31,-100,-100,-100,0,0,100,30.22,30.01,4,1,12,0.00
2013-3-31,56,46,39,-100,-100,-100,0,0,100,30.00,29.58,2,1,12,0.00
2013-4-1,44,36,27,-100,-100,-100,0,0,100,29.98,29.56,8,5,28,0.00
2013-4-2,39,30,23,-100,-100,-100,0,0,100,30.13,29.97,9,4,27,0.00
2013-4-3,44,32,24,-100,-100,-100,0,0,100,30.40,30.13,7,4,22,0.00
2013-4-4,49,37,26,-100,-100,-100,0,0,100,30.37,29.89,6,2,20,0.00
2013-4-5,47,39,30,-100,-100,-100,0,0,100,30.19,29.89,8,4,22,0.00
2013-4-6,45,35,25,-100,-100,-100,0,0,100,30.32,29.99,8,3,24,0.00
2013-4-7,63,48,38,-100,-100,-100,0,0,100,30.04,29.63,8,4,28,0.00
2013-4-8,51,44,39,-100,-100,-100,0,0,100,30.11,29.77,8,3,21,0.35
2013-4-9,56,48,41,-100,-100,-100,0,0,100,30.11,29.79,4,1,15,0.27
2013-4-10,47,43,41,-100,-100,-100,0,0,100,30.06,29.92,4,2,15,0.37
2013-4-11,41,35,32,-100,-100,-100,0,0,100,30.15,29.95,7,4,26,0.43
2013-4-12,42,37,32,-100,-100,-100,0,0,100,29.92,29.54,10,5,33,1.16
2013-4-13,45,40,37,-100,-100,-100,0,0,100,29.91,29.73,4,1,21,0.09
2013-4-14,48,40,32,-100,-100,-100,0,0,100,30.17,29.91,4,2,16,0.00
2013-4-15,53,46,39,-100,-100,-100,0,0,100,30.14,29.99,8,4,29,0.03
2013-4-16,57,53,45,-100,-100,-100,0,0,100,30.24,29.92,5,2,18,0.01
2013-4-17,56,46,36,-100,-100,-100,0,0,100,30.38,30.24,5,2,16,0.00
2013-4-18,69,53,40,-100,-100,-100,0,0,100,30.22,29.61,8,4,24,0.17
2013-4-19,63,54,-30,-100,-100,-100,0,0,100,29.65,29.31,8,2,25,0.07
2013-4-20,-200,0,200,-100,-100,-100,0,0,100,30.42,29.69,8,4,33,0.02
2013-4-21,48,22,7,-100,-100,-100,0,0,100,30.70,30.43,6,2,15,0.00
2013-4-22,53,45,37,-100,-100,-100,0,0,100,30.59,30.30,7,4,20,0.00
2013-4-23,57,49,44,-100,-100,-100,0,0,100,30.30,29.89,8,3,21,0.00
2013-4-24,56,48,38,-100,-100,-100,0,0,100,30.01,29.63,7,3,22,0.45
2013-4-25,54,43,34,-100,-100,-100,0,0,100,30.30,30.02,5,2,19,0.04
2013-4-26,58,46,35,-100,-100,-100,0,0,100,30.48,30.31,5,1,14,0.00
2013-4-27,65,51,42,-100,-100,-100,0,0,100,30.41,30.20,5,2,14,0.00
2013-4-28,67,56,48,-100,-100,-100,0,0,100,30.21,29.99,4,2,20,0.18
2013-4-29,54,51,47,-100,-100,-100,0,0,100,30.01,29.94,4,2,11,0.32
2013-4-30,71,59,51,-100,-100,-100,0,0,100,30.16,30.01,5,1,12,0.02
2013-5-1,73,64,56,-100,-100,-100,0,0,100,30.33,30.17,5,2,14,0.00
2013-5-2,74,64,53,-100,-100,-100,0,0,100,30.39,30.25,6,2,19,0.02
2013-5-3,70,64,57,-100,-100,-100,0,0,100,30.29,30.20,6,3,19,0.00
2013-5-4,72,63,54,-100,-100,-100,0,0,100,30.27,30.16,6,2,16,0.00
2013-5-5,80,66,55,-100,-100,-100,0,0,100,30.20,30.08,4,2,13,0.00
2013-5-6,76,64,54,-100,-100,-100,0,0,100,30.15,30.03,4,2,10,0.00
2013-5-7,78,65,52,-100,-100,-100,0,0,100,30.12,30.02,4,1,13,0.00
2013-5-8,74,65,61,-100,-100,-100,0,0,100,30.05,29.96,4,1,17,0.00
2013-5-9,70,66,63,-100,-100,-100,0,0,100,29.95,29.89,3,1,10,0.04
2013-5-10,62,56,52,-100,-100,-100,0,0,100,29.93,29.68,6,2,18,0.97
2013-5-11,59,52,46,-100,-100,-100,0,0,100,29.76,29.67,5,3,21,0.01
2013-5-12,51,42,37,-100,-100,-100,0,0,100,29.92,29.67,8,4,27,0.09
2013-5-13,55,44,36,-100,-100,-100,0,0,100,30.13,29.92,6,3,22,0.00
2013-5-14,57,48,39,-100,-100,-100,0,0,100,30.14,29.92,4,2,11,0.00
2013-5-15,78,60,44,-100,-100,-100,0,0,100,29.91,29.51,9,4,31,0.06
2013-5-16,81,64,52,-100,-100,-100,0,0,100,30.03,29.71,8,4,25,0.00
2013-5-17,66,58,49,-100,-100,-100,0,0,100,30.23,30.03,4,2,13,0.00
2013-5-18,63,56,54,-100,-100,-100,0,0,100,30.26,30.21,3,1,14,0.00
2013-5-19,75,64,55,-100,-100,-100,0,0,100,30.14,29.96,5,2,15,0.00
2013-5-20,84,68,58,-100,-100,-100,0,0,100,30.02,29.85,4,2,22,0.15
2013-5-21,74,65,59,-100,-100,-100,0,0,100,29.87,29.74,6,2,20,0.06
2013-5-22,74,64,58,-100,-100,-100,0,0,100,29.78,29.61,3,1,10,0.04
2013-5-23,75,61,43,-100,-100,-100,0,0,100,29.97,29.65,8,3,22,0.03
2013-5-24,60,48,40,-100,-100,-100,0,0,100,30.26,29.99,7,5,21,0.02
2013-5-25,67,53,42,-100,-100,-100,0,0,100,30.29,30.21,8,4,20,0.02
2013-5-26,72,57,45,-100,-100,-100,0,0,100,30.26,30.20,7,3,19,0.00
2013-5-27,73,60,47,-100,-100,-100,0,0,100,30.28,30.11,4,2,12,0.00
2013-5-28,60,55,50,-100,-100,-100,0,0,100,30.14,29.91,4,2,12,0.79
2013-5-29,74,66,57,-100,-100,-100,0,0,100,29.98,29.82,3,1,14,1.02
2013-5-30,84,73,65,-100,-100,-100,0,0,100,30.08,29.99,4,1,14,0.00
2013-5-31,87,74,67,-100,-100,-100,0,0,100,30.03,29.91,5,1,22,0.12
2013-6-1,82,71,64,-100,-100,-100,0,0,100,29.91,29.74,3,1,16,0.01
2013-6-2,69,64,53,-100,-100,-100,0,0,100,29.91,29.64,5,2,22,0.33
2013-6-3,69,57,47,-100,-100,-100,0,0,100,30.03,29.91,5,2,18,0.00
2013-6-4,75,60,49,-100,-100,-100,0,0,100,30.18,30.04,4,2,15,0.00
2013-6-5,68,61,57,-100,-100,-100,0,0,100,30.24,30.08,5,2,15,0.00
2013-6-6,60,57,54,-100,-100,-100,0,0,100,30.10,29.87,6,3,23,0.37
2013-6-7,60,58,54,-100,-100,-100,0,0,100,29.88,29.83,3,1,11,0.01
2013-6-8,68,62,58,-100,-100,-100,0,0,100,30.05,29.84,3,1,11,0.01
2013-6-9,76,66,56,-100,-100,-100,0,0,100,30.18,30.06,4,2,14,0.00
2013-6-10,64,61,59,-100,-100,-100,0,0,100,30.11,29.70,4,3,17,1.01
2013-6-11,71,65,59,-100,-100,-100,0,0,100,29.84,29.65,6,2,19,0.26
2013-6-12,73,66,59,-100,-100,-100,0,0,100,29.93,29.76,5,2,12,0.00
2013-6-13,71,63,59,-100,-100,-100,0,0,100,29.80,29.58,4,1,18,0.31
2013-6-14,76,65,58,-100,-100,-100,0,0,100,29.99,29.80,4,2,15,0.01
2013-6-15,75,66,55,-100,-100,-100,0,0,100,30.06,29.92,4,2,13,0.00
2013-6-16,74,68,61,-100,-100,-100,0,0,100,29.92,29.69,4,1,21,0.57
2013-6-17,78,70,63,-100,-100,-100,0,0,100,29.94,29.79,4,1,15,0.00
2013-6-18,72,64,58,-100,-100,-100,0,0,100,30.04,29.91,5,2,16,0.00
2013-6-19,70,62,56,-100,-100,-100,0,0,100,30.19,30.05,5,2,15,0.00
2013-6-20,76,65,56,-100,-100,-100,0,0,100,30.25,30.19,4,1,13,0.00
2013-6-21,81,69,60,-100,-100,-100,0,0,100,30.26,30.15,4,1,10,0.00
2013-6-22,75,70,66,-100,-100,-100,0,0,100,30.16,29.99,2,0,11,0.30
2013-6-23,87,76,67,-100,-100,-100,0,0,100,30.05,29.94,4,1,14,0.00
2013-6-24,86,79,72,-100,-100,-100,0,0,100,30.01,29.88,4,1,13,0.00
2013-6-25,78,74,70,-100,-100,-100,0,0,100,29.92,29.76,3,1,11,0.18
2013-6-26,86,76,69,-100,-100,-100,0,0,100,29.80,29.76,4,1,16,0.00
2013-6-27,75,73,69,-100,-100,-100,0,0,100,29.78,29.65,2,0,10,0.00
2013-6-28,70,67,63,-100,-100,-100,0,0,100,29.64,29.50,3,1,14,0.76
2013-6-29,65,63,62,-100,-100,-100,0,0,100,29.55,29.50,1,0,7,0.00
2013-6-30,78,69,63,-100,-100,-100,0,0,100,29.93,29.70,4,1,11,0.00
2013-7-1,75,69,65,-100,-100,-100,0,0,100,30.09,29.94,3,1,17,0.00
2013-7-2,74,68,65,-100,-100,-100,0,0,100,30.10,30.05,4,2,16,0.00
2013-7-3,80,72,66,-100,-100,-100,0,0,100,30.16,30.08,4,1,13,0.00
2013-7-4,77,73,68,-100,-100,-100,0,0,100,30.16,30.08,4,1,21,0.35
2013-7-5,74,72,70,-100,-100,-100,0,0,100,30.12,30.04,2,0,7,0.34
2013-7-6,81,74,68,-100,-100,-100,0,0,100,30.12,30.00,3,1,11,0.00
2013-7-7,77,73,70,-100,-100,-100,0,0,100,30.04,29.92,5,1,16,1.06
2013-7-8,82,73,69,-100,-100,-100,0,0,100,30.03,29.95,5,1,21,2.77
2013-7-9,74,71,69,-100,-100,-100,0,0,100,30.01,29.87,3,1,10,0.02
2013-7-10,84,76,70,-100,-100,-100,0,0,100,29.86,29.68,5,2,16,0.04
2013-7-11,75,69,62,-100,-100,-100,0,0,100,30.03,29.84,4,2,15,0.00
2013-7-12,78,70,64,-100,-100,-100,0,0,100,30.17,30.03,4,1,14,0.00
2013-7-13,83,74,65,-100,-100,-100,0,0,100,30.24,30.17,4,1,14,0.00
2013-7-14,88,78,70,-100,-100,-100,0,0,100,30.30,30.23,4,1,9,0.00
2013-7-15,90,81,74,-100,-100,-100,0,0,100,30.30,30.22,4,1,11,0.00
2013-7-16,91,83,76,-100,-100,-100,0,0,100,30.28,30.19,4,1,11,0.00
2013-7-17,95,86,79,-100,-100,-100,0,0,100,30.20,30.06,5,2,19,0.00
2013-7-18,92,85,80,-100,-100,-100,0,0,100,30.09,29.90,5,1,12,0.00
2013-7-19,94,82,69,-100,-100,-100,0,0,100,29.90,29.66,5,2,28,0.17
2013-7-20,85,76,70,-100,-100,-100,0,0,100,29.89,29.69,4,2,16,0.04
2013-7-21,76,70,65,-100,-100,-100,0,0,100,30.04,29.90,4,2,18,0.01
2013-7-22,75,71,66,-100,-100,-100,0,0,100,30.00,29.77,4,2,16,0.00
2013-7-23,83,73,66,-100,-100,-100,0,0,100,29.76,29.59,8,2,24,0.00
2013-7-24,77,66,58,-100,-100,-100,0,0,100,30.04,29.72,6,3,19,0.00
2013-7-25,80,68,59,-100,-100,-100,0,0,100,30.13,30.04,4,2,12,0.00
2013-7-26,78,70,63,-100,-100,-100,0,0,100,30.12,29.99,5,2,16,0.01
2013-7-27,73,69,66,-100,-100,-100,0,0,100,29.98,29.76,121,12,128,0.69
2013-7-28,76,67,60,-100,-100,-100,0,0,100,29.95,29.74,122,19,128,0.02
2013-7-29,68,7,65,-100,-100,-100,0,0,100,30.13,29.95,2,0,13,0.00
2013-7-30,78,68,60,-100,-100,-100,0,0,100,30.20,30.13,4,1,12,0.00
2013-7-31,79,68,62,-100,-100,-100,0,0,100,30.14,29.93,3,1,8,0.00
2013-8-1,74,67,62,-100,-100,-100,0,0,100,29.92,29.77,5,2,15,0.01
2013-8-2,79,67,62,-100,-100,-100,0,0,100,29.87,29.78,3,1,28,0.00
2013-8-3,65,61,58,-100,-100,-100,0,0,100,29.90,29.82,3,1,12,0.00
2013-8-4,77,66,60,-100,-100,-100,0,0,100,30.08,29.95,6,3,18,0.00
2013-8-5,78,66,57,-100,-100,-100,0,0,100,30.11,30.00,4,1,14,0.00
2013-8-6,78,69,63,-100,-100,-100,0,0,100,30.04,29.96,4,2,12,0.00
2013-8-7,78,72,68,-100,-100,-100,0,0,100,29.96,29.81,3,2,13,0.00
2013-8-8,83,75,70,-100,-100,-100,0,0,100,29.96,29.87,4,2,12,0.00
2013-8-9,84,74,68,-100,-100,-100,0,0,100,29.93,29.86,4,2,12,0.05
2013-8-10,78,69,62,-100,-100,-100,0,0,100,30.09,29.91,4,2,14,0.00
2013-8-11,76,67,58,-100,-100,-100,0,0,100,30.13,30.01,5,1,12,0.00
2013-8-12,73,68,61,-100,-100,-100,0,0,100,30.04,29.84,3,1,11,0.00
2013-8-13,76,68,58,-100,-100,-100,0,0,100,29.89,29.75,8,3,20,0.00
2013-8-14,77,65,57,-100,-100,-100,0,0,100,30.09,29.87,7,4,22,0.00
2013-8-15,77,66,57,-100,-100,-100,0,0,100,30.12,30.05,3,1,14,0.00
2013-8-16,70,62,59,-100,-100,-100,0,0,100,30.16,30.11,3,0,7,0.00
2013-8-17,82,71,63,-100,-100,-100,0,0,100,30.29,30.20,3,1,10,0.00
2013-8-18,81,72,65,-100,-100,-100,0,0,100,30.24,30.10,5,1,11,0.00
2013-8-19,85,74,65,-100,-100,-100,0,0,100,30.11,30.01,4,1,12,0.00
2013-8-20,86,76,67,-100,-100,-100,0,0,100,30.11,30.04,4,1,12,0.00
2013-8-21,87,77,69,-100,-100,-100,0,0,100,30.14,29.99,4,1,13,0.00
2013-8-22,85,77,71,-100,-100,-100,0,0,100,30.00,29.91,6,2,19,0.00
2013-8-23,78,70,65,-100,-100,-100,0,0,100,30.20,30.01,5,2,14,0.00
2013-8-24,80,70,64,-100,-100,-100,0,0,100,30.36,30.21,4,2,11,0.00
2013-8-25,82,72,63,-100,-100,-100,0,0,100,30.33,30.08,4,1,13,0.00
2013-8-26,73,71,68,-100,-100,-100,0,0,100,30.09,29.91,2,0,11,0.00
2013-8-27,80,73,68,-100,-100,-100,0,0,100,29.93,29.85,3,1,9,0.00
2013-8-28,79,74,70,-100,-100,-100,0,0,100,29.96,29.84,3,1,16,0.00
2013-8-29,83,74,71,-100,-100,-100,0,0,100,30.05,29.96,3,0,9,0.00
2013-8-30,81,76,72,-100,-100,-100,0,0,100,29.99,29.70,4,1,14,0.00
2013-8-31,75,73,72,-100,-100,-100,0,0,100,29.84,29.69,2,1,10,0.00
2013-9-1,78,73,70,-100,-100,-100,0,0,100,29.84,29.74,4,2,14,0.00
2013-9-2,76,70,64,-100,-100,-100,0,0,100,29.78,29.68,6,2,20,0.05
2013-9-3,70,65,61,-100,-100,-100,0,0,100,29.93,29.78,4,2,16,0.18
2013-9-4,80,68,58,-100,-100,-100,0,0,100,30.00,29.91,4,2,17,0.00
2013-9-5,71,61,56,-100,-100,-100,0,0,100,30.25,30.00,5,3,18,0.00
2013-9-6,71,61,49,-100,-100,-100,0,0,100,30.29,30.07,3,1,12,0.00
2013-9-7,66,63,60,-100,-100,-100,0,0,100,30.07,29.87,2,1,14,0.71
2013-9-8,71,64,58,-100,-100,-100,0,0,100,30.11,29.86,4,2,16,0.00
2013-9-9,68,62,56,-100,-100,-100,0,0,100,30.12,29.92,3,1,9,0.00
2013-9-10,87,76,66,-100,-100,-100,0,0,100,29.96,29.84,4,2,14,0.00
2013-9-11,86,77,71,-100,-100,-100,0,0,100,29.98,29.88,3,1,13,0.28
2013-9-12,72,68,63,-100,-100,-100,0,0,100,29.90,29.73,6,2,20,0.00
2013-9-13,63,56,52,-100,-100,-100,0,0,100,30.06,29.78,5,4,19,0.00
2013-9-14,67,55,45,-100,-100,-100,0,0,100,30.14,30.05,3,1,12,0.00
2013-9-15,65,58,54,-100,-100,-100,0,0,100,30.12,30.04,2,1,12,0.05
2013-9-16,60,55,51,-100,-100,-100,0,0,100,30.38,30.06,5,2,15,0.00
2013-9-17,66,55,48,-100,-100,-100,0,0,100,30.48,30.28,4,1,14,0.00
2013-9-18,72,60,50,-100,-100,-100,0,0,100,30.27,30.09,4,1,11,0.00
2013-9-19,70,63,56,-100,-100,-100,0,0,100,30.11,29.99,3,1,11,0.00
2013-9-20,73,68,64,-100,-100,-100,0,0,100,30.00,29.72,3,1,13,0.08
2013-9-21,69,61,51,-100,-100,-100,0,0,100,29.73,29.61,5,1,16,1.13
2013-9-22,54,51,48,-100,-100,-100,0,0,100,30.06,29.74,5,2,16,0.01
2013-9-23,64,54,48,-100,-100,-100,0,0,100,30.16,30.05,3,1,16,0.00
2013-9-24,68,55,47,-100,-100,-100,0,0,100,30.17,30.01,4,1,11,0.00
2013-9-25,71,58,48,-100,-100,-100,0,0,100,30.02,29.95,3,1,8,0.00
2013-9-26,73,60,52,-100,-100,-100,0,0,100,30.15,30.00,4,1,10,0.00
2013-9-27,70,62,57,-100,-100,-100,0,0,100,30.28,30.16,4,1,15,0.00
2013-9-28,72,62,58,-100,-100,-100,0,0,100,30.29,30.12,5,2,19,0.00
2013-9-29,73,64,59,-100,-100,-100,0,0,100,30.12,29.98,3,1,10,0.00
2013-9-30,67,65,63,-100,-100,-100,0,0,100,29.98,29.92,3,1,10,0.08
2013-10-1,72,64,56,-100,-100,-100,0,0,100,30.01,29.88,4,1,14,0.00
2013-10-2,79,68,60,-100,-100,-100,0,0,100,30.08,29.88,5,1,18,0.00
2013-10-3,73,62,52,-100,-100,-100,0,0,100,30.13,30.00,3,1,9,0.00
2013-10-4,66,61,59,-100,-100,-100,0,0,100,30.08,29.97,5,2,16,0.54
2013-10-5,62,60,56,-100,-100,-100,0,0,100,30.11,30.02,3,1,17,0.18
2013-10-6,66,62,57,-100,-100,-100,0,0,100,30.01,29.64,5,3,18,0.15
2013-10-7,66,58,52,-100,-100,-100,0,0,100,30.03,29.60,5,2,24,0.35
2013-10-8,65,55,47,-100,-100,-100,0,0,100,30.33,30.04,2,0,11,0.00
2013-10-9,70,58,51,-100,-100,-100,0,0,100,30.39,30.28,3,1,11,0.00
2013-10-10,71,59,53,-100,-100,-100,0,0,100,30.27,30.16,3,1,12,0.00
2013-10-11,71,59,50,-100,-100,-100,0,0,100,30.19,30.13,4,1,10,0.00
2013-10-12,55,55,54,-100,-100,-100,0,0,100,30.13,30.13,0,0,0,0.00
2013-10-13,63,60,57,-100,-100,-100,0,0,100,30.28,30.13,5,1,13,0.87
2013-10-14,62,55,47,-100,-100,-100,0,0,100,30.35,30.28,3,1,10,0.01
2013-10-15,65,58,51,-100,-100,-100,0,0,100,30.30,29.91,4,1,14,0.00
2013-10-16,66,62,55,-100,-100,-100,0,0,100,29.90,29.70,4,2,126,0.32
2013-10-17,67,56,52,-100,-100,-100,0,0,100,29.86,29.68,3,1,11,0.38
2013-10-18,59,54,48,-100,-100,-100,0,0,100,29.87,29.69,5,2,19,0.01
2013-10-19,52,49,42,-100,-100,-100,0,0,100,29.84,29.65,1,0,11,0.24
2013-10-20,58,48,40,-100,-100,-100,0,0,100,29.94,29.74,4,1,16,0.00
2013-10-21,59,54,49,-100,-100,-100,0,0,100,29.92,29.75,5,2,18,0.23
2013-10-22,50,45,40,-100,-100,-100,0,0,100,29.82,29.74,4,2,20,0.01
2013-10-23,50,44,39,-100,-100,-100,0,0,100,29.81,29.71,5,1,18,0.00
2013-10-24,49,42,37,-100,-100,-100,0,0,100,30.02,29.78,5,2,18,0.00
2013-10-25,53,44,38,-100,-100,-100,0,0,100,30.19,30.03,4,1,18,0.00
2013-10-26,44,42,40,-100,-100,-100,0,0,100,30.07,29.73,4,2,21,0.27
2013-10-27,48,42,37,-100,-100,-100,0,0,100,30.02,29.80,4,1,14,0.00
2013-10-28,50,44,39,-100,-100,-100,0,0,100,30.42,29.99,6,2,20,0.00
2013-10-29,50,40,34,-100,-100,-100,0,0,100,30.49,30.31,3,1,14,0.00
2013-10-30,53,45,41,-100,-100,-100,0,0,100,30.30,30.09,3,1,10,0.02
2013-10-31,57,52,46,-100,-100,-100,0,0,100,30.07,29.30,5,1,15,0.51
2013-11-1,56,53,49,-100,-100,-100,0,0,100,29.63,29.06,7,3,29,0.12
2013-11-2,49,45,37,-100,-100,-100,0,0,100,30.05,29.59,4,2,18,0.06
2013-11-3,43,35,31,-100,-100,-100,0,0,100,30.54,30.06,4,2,15,0.01
2013-11-4,49,39,32,-100,-100,-100,0,0,100,30.64,30.43,5,1,15,0.00
2013-11-5,59,48,39,-100,-100,-100,0,0,100,30.43,30.29,3,1,11,0.00
2013-11-6,56,52,50,-100,-100,-100,0,0,100,30.26,29.75,5,2,16,0.12
2013-11-17,58,54,50,-100,-100,-100,0,0,100,29.94,29.24,6,3,21,0.37
2013-11-18,49,44,37,-100,-100,-100,0,0,100,29.95,29.28,7,5,32,0.01
2013-11-19,43,36,30,-100,-100,-100,0,0,100,30.48,29.95,6,4,22,0.00
2013-11-20,42,35,28,-100,-100,-100,0,0,100,30.59,30.42,7,3,21,0.00
2013-11-21,46,42,37,-100,-100,-100,0,0,100,30.41,30.22,4,1,12,0.01
2013-11-22,48,41,30,-100,-100,-100,0,0,100,30.23,30.01,8,2,24,0.00
2013-11-23,35,27,15,-100,-100,-100,0,0,100,30.29,30.06,9,4,29,0.00
2013-11-29,34,26,19,-100,-100,-100,0,0,100,30.73,30.45,3,1,12,0.00
2013-11-30,37,32,27,-100,-100,-100,0,0,100,30.69,30.14,4,1,15,0.00
2013-12-1,41,38,37,-100,-100,-100,0,0,100,30.13,29.93,1,0,7,0.00
2013-12-2,38,37,33,-100,-100,-100,0,0,100,29.93,29.87,3,0,14,0.00
2013-12-3,43,35,28,-100,-100,-100,0,0,100,30.00,29.92,4,1,15,0.00
2013-12-4,40,38,35,-100,-100,-100,0,0,100,30.05,29.80,7,5,22,0.04
2013-12-5,57,46,39,-100,-100,-100,0,0,100,30.04,29.69,6,3,26,0.00
2013-12-6,38,34,30,-100,-100,-100,0,0,100,30.29,30.01,4,2,14,0.00
2013-12-7,33,28,23,-100,-100,-100,0,0,100,30.57,30.29,5,2,16,0.00
2013-12-8,32,26,21,-100,-100,-100,0,0,100,30.58,30.14,3,1,13,0.00
2013-12-9,35,32,28,-100,-100,-100,0,0,100,30.10,29.82,5,2,23,0.02
2013-12-10,27,23,19,-100,-100,-100,0,0,100,30.06,29.92,5,3,25,0.01
2013-12-11,27,22,16,-100,-100,-100,0,0,100,30.31,30.08,7,4,23,0.00
2013-12-12,20,17,14,-100,-100,-100,0,0,100,30.32,30.04,5,3,22,0.00
2013-12-13,24,19,12,-100,-100,-100,0,0,100,30.44,30.01,6,4,20,0.00
2013-12-14,16,12,9,-100,-100,-100,0,0,100,30.47,29.77,5,3,18,0.00
2013-12-15,25,18,12,-100,-100,-100,0,0,100,29.90,29.70,7,3,26,0.00
2013-12-16,22,14,6,-100,-100,-100,0,0,100,30.18,29.90,5,2,14,0.07
2013-12-17,27,23,15,-100,-100,-100,0,0,100,30.10,29.90,3,1,13,0.00
2013-12-18,34,29,25,-100,-100,-100,0,0,100,30.04,29.92,5,2,19,0.01
2013-12-19,38,33,30,-100,-100,-100,0,0,100,30.03,29.86,4,1,16,0.07
2013-12-20,35,34,32,-100,-100,-100,0,0,100,29.98,29.77,5,1,16,0.37
2013-12-21,35,33,32,-100,-100,-100,0,0,100,29.92,29.74,4,1,15,0.61
2013-12-22,32,31,29,-100,-100,-100,0,0,100,29.94,29.64,3,0,17,0.23
2013-12-23,33,28,21,-100,-100,-100,0,0,100,30.29,29.94,3,1,12,0.00
2013-12-24,21,15,8,-100,-100,-100,0,0,100,30.54,30.25,6,3,21,0.00
2013-12-25,27,17,6,-100,-100,-100,0,0,100,30.55,30.15,2,1,12,0.00
2013-12-26,32,27,22,-100,-100,-100,0,0,100,30.27,30.05,3,1,19,0.00
2013-12-27,35,29,23,-100,-100,-100,0,0,100,30.26,30.01,3,1,18,0.01
2013-12-28,38,36,34,-100,-100,-100,0,0,100,30.07,29.89,2,0,13,0.07
2013-12-29,41,36,24,-100,-100,-100,0,0,100,29.88,29.61,6,1,24,0.05
2013-12-30,22,17,15,-100,-100,-100,0,0,100,30.25,29.86,7,3,22,0.00
2013-12-31,24,19,15,-100,-100,-100,0,0,100,30.26,29.98,6,2,24,0.00
2014-1-1,19,13,7,-100,-100,-100,0,0,100,30.43,30.27,5,3,17,0.00
2014-1-2,7,3,-1,-100,-100,-100,0,0,100,30.35,30.10,7,5,21,0.00